^^
Your Local Weather - Clay, NY Station Historical Data
Daily Summary for April 4, 2017 Units:  English    Metric   Both
« Previous Day
Next Day »
Daily Weekly Monthly Yearly Custom
  High: Low: Average:
Temperature: 55.7 °F 44.0 °F 49 °F
Dew Point: 52.0 °F 40.5 °F 45.5 °F
Humidity: 93% 70% 88%
Wind Speed: 8.0mph 0.0mph 3.4mph
Wind Gust: 13.0mph - -
Wind- - SE
Pressure: 29.65 in 29.38 in -
Precipitation: 1.47 in    
Historical Graphs
 
 
Tabular Data for April 4, 2017
Time Temperature Dew Point Pressure Wind Wind Speed Wind Gust Humidity Rainfall Rate (Hourly) solar
00:02 48.6 °F 43.0 °F 29.64 in ENE 1.0 mph 2.0 mph 81% 0.10 in 0 W/m2
00:08 48.8 °F 43.9 °F 29.64 in ESE 1.0 mph 4.0 mph 83% 0.13 in 0 W/m2
00:16 50.5 °F 45.8 °F 29.64 in SSE 3.0 mph 5.0 mph 84% 0.26 in 0 W/m2
00:22 50.8 °F 46.1 °F 29.64 in ESE 4.0 mph 5.0 mph 84% 0.17 in 0 W/m2
00:28 50.9 °F 46.2 °F 29.64 in SSE 4.0 mph 5.0 mph 84% 0.10 in 0 W/m2
00:34 50.8 °F 46.1 °F 29.62 in ESE 4.0 mph 10.0 mph 84% 0.11 in 0 W/m2
00:40 50.2 °F 45.6 °F 29.62 in ENE 4.0 mph 7.0 mph 84% 0.11 in 0 W/m2
00:46 49.2 °F 44.9 °F 29.62 in ENE 3.0 mph 7.0 mph 85% 0.08 in 0 W/m2
00:52 48.3 °F 44.0 °F 29.62 in East 3.0 mph 6.0 mph 85% 0.08 in 0 W/m2
00:58 47.9 °F 43.9 °F 29.62 in East 3.0 mph 6.0 mph 86% 0.16 in 0 W/m2
01:04 47.7 °F 44.0 °F 29.61 in East 3.0 mph 3.0 mph 87% 0.12 in 0 W/m2
01:10 47.8 °F 44.4 °F 29.61 in East 2.0 mph 2.0 mph 88% 0.15 in 0 W/m2
01:16 48.1 °F 45.0 °F 29.61 in East 3.0 mph 3.0 mph 89% 0.19 in 0 W/m2
01:22 48.3 °F 45.2 °F 29.61 in ENE 3.0 mph 6.0 mph 89% 0.19 in 0 W/m2
01:28 48.2 °F 45.1 °F 29.60 in East 3.0 mph 10.0 mph 89% 0.40 in 0 W/m2
01:34 48.2 °F 45.4 °F 29.59 in East 4.0 mph 6.0 mph 90% 0.19 in 0 W/m2
01:40 48.1 °F 45.3 °F 29.59 in SE 4.0 mph 5.0 mph 90% 0.43 in 0 W/m2
01:46 48.0 °F 45.2 °F 29.59 in SE 4.0 mph 5.0 mph 90% 0.46 in 0 W/m2
01:52 47.9 °F 45.1 °F 29.59 in ESE 4.0 mph 5.0 mph 90% 0.32 in 0 W/m2
01:58 47.5 °F 44.7 °F 29.57 in ENE 4.0 mph 6.0 mph 90% 0.46 in 0 W/m2
02:04 46.5 °F 43.7 °F 29.57 in ENE 4.0 mph 4.0 mph 90% 0.31 in 0 W/m2
02:10 45.9 °F 43.4 °F 29.54 in ENE 4.0 mph 11.0 mph 91% 0.79 in 0 W/m2
02:16 45.7 °F 43.2 °F 29.53 in SSE 6.0 mph 13.0 mph 91% 0.30 in 0 W/m2
02:22 45.8 °F 43.3 °F 29.52 in ESE 6.0 mph 9.0 mph 91% 0.17 in 0 W/m2
02:28 45.6 °F 43.1 °F 29.52 in ESE 6.0 mph 9.0 mph 91% 0.55 in 0 W/m2
02:34 45.7 °F 43.5 °F 29.53 in SSE 5.0 mph 6.0 mph 92% 0.31 in 0 W/m2
02:40 45.8 °F 43.6 °F 29.52 in ESE 4.0 mph 4.0 mph 92% 1.05 in 0 W/m2
02:46 46.0 °F 43.8 °F 29.53 in SE 3.0 mph 5.0 mph 92% 0.35 in 0 W/m2
02:52 46.1 °F 43.9 °F 29.53 in SE 3.0 mph 3.0 mph 92% 0.25 in 0 W/m2
02:58 46.1 °F 43.9 °F 29.52 in ESE 3.0 mph 4.0 mph 92% 0.36 in 0 W/m2
03:04 46.0 °F 43.8 °F 29.52 in ENE 4.0 mph 4.0 mph 92% 0.24 in 0 W/m2
03:10 45.9 °F 43.7 °F 29.51 in ESE 4.0 mph 5.0 mph 92% 0.18 in 0 W/m2
03:16 45.7 °F 43.5 °F 29.51 in East 4.0 mph 5.0 mph 92% 0.41 in 0 W/m2
03:22 45.6 °F 43.4 °F 29.51 in ENE 4.0 mph 4.0 mph 92% 0.23 in 0 W/m2
03:28 45.4 °F 43.2 °F 29.51 in SE 3.0 mph 4.0 mph 92% 0.20 in 0 W/m2
03:34 45.4 °F 43.2 °F 29.50 in ESE 3.0 mph 5.0 mph 92% 0.28 in 0 W/m2
03:40 45.3 °F 43.1 °F 29.50 in ESE 3.0 mph 4.0 mph 92% 0.24 in 0 W/m2
03:46 45.4 °F 43.2 °F 29.50 in ENE 3.0 mph 4.0 mph 92% 0.25 in 0 W/m2
03:48 45.4 °F 43.2 °F 29.50 in ENE 3.0 mph 4.0 mph 92% 0.12 in 0 W/m2
03:54 45.3 °F 43.4 °F 29.50 in East 2.0 mph 3.0 mph 93% 0.10 in 0 W/m2
04:00 45.3 °F 43.4 °F 29.50 in East 2.0 mph 2.0 mph 93% 0.06 in 0 W/m2
04:06 45.3 °F 43.4 °F 29.50 in NE 3.0 mph 3.0 mph 93% 0.04 in 0 W/m2
04:12 45.3 °F 43.4 °F 29.50 in ENE 3.0 mph 3.0 mph 93% 0.00 in 0 W/m2
04:18 45.3 °F 43.4 °F 29.50 in NE 3.0 mph 3.0 mph 93% 0.06 in 0 W/m2
04:24 45.3 °F 43.4 °F 29.49 in ENE 3.0 mph 5.0 mph 93% 0.10 in 0 W/m2
04:32 45.3 °F 43.4 °F 29.49 in ENE 3.0 mph 5.0 mph 93% 0.06 in 0 W/m2
04:38 45.2 °F 43.3 °F 29.49 in ESE 3.0 mph 7.0 mph 93% 0.04 in 0 W/m2
04:44 45.2 °F 43.3 °F 29.48 in East 4.0 mph 5.0 mph 93% 0.00 in 0 W/m2
04:50 45.1 °F 43.2 °F 29.48 in ENE 4.0 mph 4.0 mph 93% 0.00 in 0 W/m2
04:56 44.8 °F 42.9 °F 29.47 in ENE 4.0 mph 4.0 mph 93% 0.00 in 0 W/m2
05:02 44.7 °F 42.8 °F 29.47 in East 4.0 mph 4.0 mph 93% 0.00 in 0 W/m2
05:08 44.6 °F 42.7 °F 29.46 in ENE 4.0 mph 11.0 mph 93% 0.00 in 0 W/m2
05:14 44.5 °F 42.6 °F 29.46 in ENE 5.0 mph 5.0 mph 93% 0.00 in 0 W/m2
05:20 44.4 °F 42.5 °F 29.46 in ESE 4.0 mph 4.0 mph 93% 0.00 in 0 W/m2
05:26 44.4 °F 42.5 °F 29.46 in ENE 4.0 mph 5.0 mph 93% 0.00 in 0 W/m2
05:32 44.3 °F 42.4 °F 29.46 in East 3.0 mph 4.0 mph 93% 0.00 in 0 W/m2
05:38 44.3 °F 42.4 °F 29.46 in East 3.0 mph 6.0 mph 93% 0.00 in 0 W/m2
05:44 44.4 °F 42.5 °F 29.46 in NE 4.0 mph 4.0 mph 93% 0.00 in 0 W/m2
05:50 44.5 °F 42.6 °F 29.45 in SE 3.0 mph 3.0 mph 93% 0.00 in 0 W/m2
05:56 44.5 °F 42.6 °F 29.46 in East 4.0 mph 8.0 mph 93% 0.00 in 0 W/m2
06:02 44.2 °F 42.3 °F 29.46 in East 4.0 mph 6.0 mph 93% 0.00 in 0 W/m2
06:08 44.0 °F 42.1 °F 29.46 in East 4.0 mph 6.0 mph 93% 0.00 in 0 W/m2
06:14 44.0 °F 42.1 °F 29.46 in East 4.0 mph 8.0 mph 93% 0.00 in 0 W/m2
06:20 44.1 °F 42.2 °F 29.46 in ENE 4.0 mph 4.0 mph 93% 0.00 in 0 W/m2
06:26 44.2 °F 42.3 °F 29.46 in East 3.0 mph 4.0 mph 93% 0.00 in 0 W/m2
06:32 44.2 °F 42.3 °F 29.46 in ENE 3.0 mph 4.0 mph 93% 0.00 in 0 W/m2
06:38 44.2 °F 42.3 °F 29.46 in NNE 4.0 mph 6.0 mph 93% 0.00 in 0 W/m2
06:44 44.1 °F 42.2 °F 29.45 in ENE 4.0 mph 7.0 mph 93% 0.00 in 0 W/m2
06:50 44.1 °F 42.2 °F 29.45 in East 3.0 mph 5.0 mph 93% 0.00 in 7 W/m2
06:56 44.2 °F 42.3 °F 29.46 in ENE 3.0 mph 5.0 mph 93% 0.00 in 7 W/m2
07:02 44.2 °F 42.3 °F 29.45 in East 3.0 mph 3.0 mph 93% 0.00 in 12 W/m2
07:08 44.3 °F 42.4 °F 29.45 in East 3.0 mph 5.0 mph 93% 0.00 in 18 W/m2
07:14 44.3 °F 42.4 °F 29.45 in ENE 3.0 mph 4.0 mph 93% 0.00 in 28 W/m2
07:20 44.4 °F 42.5 °F 29.45 in ESE 3.0 mph 3.0 mph 93% 0.00 in 26 W/m2
07:26 44.5 °F 42.6 °F 29.45 in ENE 3.0 mph 8.0 mph 93% 0.00 in 23 W/m2
07:32 44.5 °F 42.6 °F 29.45 in East 4.0 mph 5.0 mph 93% 0.00 in 42 W/m2
07:38 44.7 °F 42.8 °F 29.45 in ENE 4.0 mph 5.0 mph 93% 0.00 in 47 W/m2
07:44 44.8 °F 42.9 °F 29.45 in East 4.0 mph 5.0 mph 93% 0.00 in 62 W/m2
07:50 44.9 °F 43.0 °F 29.45 in East 4.0 mph 4.0 mph 93% 0.00 in 32 W/m2
07:56 44.9 °F 43.0 °F 29.45 in ENE 4.0 mph 5.0 mph 93% 0.00 in 33 W/m2
08:02 45.0 °F 43.1 °F 29.45 in ENE 3.0 mph 4.0 mph 93% 0.00 in 25 W/m2
08:08 45.0 °F 43.1 °F 29.45 in ENE 3.0 mph 4.0 mph 93% 0.00 in 23 W/m2
08:14 45.1 °F 43.2 °F 29.45 in ESE 3.0 mph 5.0 mph 93% 0.00 in 26 W/m2
08:20 45.1 °F 43.2 °F 29.44 in ESE 3.0 mph 5.0 mph 93% 0.00 in 40 W/m2
08:26 45.3 °F 43.4 °F 29.44 in SE 4.0 mph 5.0 mph 93% 0.00 in 53 W/m2
08:32 45.5 °F 43.6 °F 29.44 in East 4.0 mph 4.0 mph 93% 0.00 in 51 W/m2
08:38 45.6 °F 43.7 °F 29.44 in ENE 4.0 mph 4.0 mph 93% 0.00 in 53 W/m2
08:46 45.8 °F 43.9 °F 29.43 in ENE 3.0 mph 7.0 mph 93% 0.00 in 102 W/m2
08:52 46.1 °F 44.2 °F 29.43 in ENE 3.0 mph 6.0 mph 93% 0.00 in 79 W/m2
08:58 46.2 °F 44.3 °F 29.43 in ENE 3.0 mph 6.0 mph 93% 0.00 in 137 W/m2
09:04 46.6 °F 44.7 °F 29.43 in ENE 3.0 mph 5.0 mph 93% 0.00 in 149 W/m2
09:10 46.8 °F 44.9 °F 29.43 in ENE 3.0 mph 3.0 mph 93% 0.00 in 102 W/m2
09:16 46.8 °F 44.6 °F 29.43 in ENE 3.0 mph 5.0 mph 92% 0.00 in 105 W/m2
09:22 46.9 °F 44.7 °F 29.43 in East 3.0 mph 6.0 mph 92% 0.00 in 26 W/m2
09:28 46.6 °F 44.4 °F 29.42 in SE 4.0 mph 6.0 mph 92% 0.00 in 19 W/m2
09:34 46.5 °F 44.3 °F 29.42 in ENE 4.0 mph 5.0 mph 92% 0.00 in 39 W/m2
09:40 46.5 °F 44.3 °F 29.42 in ENE 3.0 mph 3.0 mph 92% 0.00 in 93 W/m2
09:46 46.5 °F 44.3 °F 29.42 in East 3.0 mph 5.0 mph 92% 0.00 in 132 W/m2
09:52 46.7 °F 44.5 °F 29.42 in ENE 4.0 mph 4.0 mph 92% 0.00 in 76 W/m2
09:58 46.6 °F 44.4 °F 29.42 in ENE 3.0 mph 5.0 mph 92% 0.43 in 76 W/m2
10:04 46.6 °F 44.4 °F 29.42 in ENE 3.0 mph 4.0 mph 92% 0.13 in 91 W/m2
10:10 46.7 °F 44.8 °F 29.42 in East 3.0 mph 6.0 mph 93% 0.06 in 132 W/m2
10:16 46.7 °F 44.8 °F 29.42 in ESE 4.0 mph 6.0 mph 93% 0.04 in 137 W/m2
10:22 46.8 °F 44.9 °F 29.42 in ESE 5.0 mph 5.0 mph 93% 0.00 in 174 W/m2
10:28 46.9 °F 45.0 °F 29.41 in SE 4.0 mph 7.0 mph 93% 0.00 in 128 W/m2
10:34 47.0 °F 45.1 °F 29.42 in ENE 5.0 mph 5.0 mph 93% 0.00 in 83 W/m2
10:40 47.1 °F 45.2 °F 29.42 in ENE 5.0 mph 5.0 mph 93% 0.00 in 232 W/m2
10:46 47.3 °F 45.4 °F 29.41 in ENE 6.0 mph 9.0 mph 93% 0.00 in 265 W/m2
10:52 47.6 °F 45.7 °F 29.41 in East 5.0 mph 6.0 mph 93% 0.00 in 156 W/m2
10:58 48.0 °F 46.1 °F 29.41 in East 4.0 mph 8.0 mph 93% 0.00 in 272 W/m2
11:04 48.0 °F 46.1 °F 29.41 in NE 4.0 mph 5.0 mph 93% 0.00 in 144 W/m2
11:10 48.1 °F 45.9 °F 29.41 in NE 4.0 mph 4.0 mph 92% 0.00 in 100 W/m2
11:16 48.1 °F 45.9 °F 29.41 in ENE 3.0 mph 4.0 mph 92% 0.00 in 134 W/m2
11:22 48.3 °F 46.1 °F 29.41 in East 5.0 mph 6.0 mph 92% 0.00 in 346 W/m2
11:28 49.1 °F 46.9 °F 29.41 in ENE 5.0 mph 6.0 mph 92% 0.00 in 436 W/m2
11:34 49.2 °F 46.7 °F 29.41 in ESE 6.0 mph 6.0 mph 91% 0.00 in 209 W/m2
11:40 49.5 °F 47.0 °F 29.41 in ENE 5.0 mph 5.0 mph 91% 0.00 in 193 W/m2
11:46 49.6 °F 47.1 °F 29.40 in ENE 5.0 mph 9.0 mph 91% 0.00 in 116 W/m2
11:52 49.5 °F 47.0 °F 29.40 in ENE 5.0 mph 5.0 mph 91% 0.00 in 81 W/m2
11:58 49.4 °F 46.9 °F 29.40 in East 4.0 mph 5.0 mph 91% 0.00 in 105 W/m2
12:04 49.4 °F 46.9 °F 29.40 in ENE 3.0 mph 5.0 mph 91% 0.00 in 160 W/m2
12:10 49.6 °F 47.4 °F 29.40 in ENE 3.0 mph 4.0 mph 92% 0.00 in 144 W/m2
12:16 49.6 °F 47.4 °F 29.40 in East 3.0 mph 7.0 mph 92% 0.00 in 160 W/m2
12:22 49.5 °F 47.3 °F 29.40 in East 4.0 mph 7.0 mph 92% 0.00 in 213 W/m2
12:29 49.6 °F 47.4 °F 29.40 in NNE 4.0 mph 7.0 mph 92% 0.00 in 341 W/m2
12:34 50.2 °F 48.0 °F 29.40 in ENE 3.0 mph 7.0 mph 92% 0.00 in 355 W/m2
12:40 50.5 °F 48.3 °F 29.40 in ENE 4.0 mph 4.0 mph 92% 0.00 in 371 W/m2
12:46 51.0 °F 48.8 °F 29.40 in NE 5.0 mph 8.0 mph 92% 0.00 in 323 W/m2
12:52 51.5 °F 49.0 °F 29.40 in East 3.0 mph 3.0 mph 91% 0.00 in 345 W/m2
12:58 51.8 °F 49.3 °F 29.40 in SE 3.0 mph 3.0 mph 91% 0.00 in 251 W/m2
13:04 52.0 °F 49.2 °F 29.40 in ENE 3.0 mph 5.0 mph 90% 0.00 in 220 W/m2
13:10 52.4 °F 49.6 °F 29.40 in ENE 3.0 mph 4.0 mph 90% 0.00 in 121 W/m2
13:16 52.8 °F 49.9 °F 29.40 in ENE 2.0 mph 6.0 mph 90% 0.00 in 213 W/m2
13:22 53.0 °F 50.1 °F 29.39 in NNE 3.0 mph 3.0 mph 90% 0.00 in 243 W/m2
13:28 53.0 °F 49.8 °F 29.38 in ENE 4.0 mph 5.0 mph 89% 0.00 in 227 W/m2
13:34 53.4 °F 50.2 °F 29.39 in NE 4.0 mph 4.0 mph 89% 0.00 in 359 W/m2
13:40 53.5 °F 50.3 °F 29.38 in NE 3.0 mph 4.0 mph 89% 0.00 in 408 W/m2
13:46 53.7 °F 50.2 °F 29.38 in ENE 3.0 mph 4.0 mph 88% 0.00 in 195 W/m2
13:52 54.1 °F 50.6 °F 29.38 in North 3.0 mph 5.0 mph 88% 0.00 in 461 W/m2
13:58 55.2 °F 52.0 °F 29.38 in ENE 4.0 mph 5.0 mph 89% 0.00 in 680 W/m2
14:04 55.7 °F 51.6 °F 29.38 in ENE 4.0 mph 4.0 mph 86% 0.00 in 380 W/m2
14:10 55.6 °F 51.5 °F 29.38 in ENE 3.0 mph 5.0 mph 86% 0.00 in 466 W/m2
14:16 55.0 °F 50.9 °F 29.38 in East 4.0 mph 7.0 mph 86% 0.00 in 241 W/m2
14:22 54.0 °F 49.6 °F 29.38 in East 4.0 mph 5.0 mph 85% 0.00 in 165 W/m2
14:28 53.7 °F 49.6 °F 29.38 in ENE 5.0 mph 6.0 mph 86% 0.00 in 158 W/m2
14:34 53.4 °F 49.3 °F 29.38 in NNE 4.0 mph 5.0 mph 86% 0.00 in 67 W/m2
14:40 53.2 °F 49.1 °F 29.38 in NNE 2.0 mph 3.0 mph 86% 0.00 in 74 W/m2
14:46 52.9 °F 49.1 °F 29.38 in NE 3.0 mph 4.0 mph 87% 0.00 in 160 W/m2
14:52 52.8 °F 49.3 °F 29.38 in East 2.0 mph 3.0 mph 88% 0.00 in 313 W/m2
14:58 52.9 °F 49.7 °F 29.38 in East 3.0 mph 5.0 mph 89% 0.00 in 297 W/m2
15:04 53.6 °F 50.7 °F 29.38 in NNE 3.0 mph 4.0 mph 90% 0.00 in 255 W/m2
15:10 53.3 °F 49.8 °F 29.38 in East 3.0 mph 3.0 mph 88% 0.00 in 209 W/m2
15:16 53.2 °F 50.0 °F 29.40 in NW 5.0 mph 10.0 mph 89% 0.00 in 51 W/m2
15:22 52.4 °F 49.3 °F 29.40 in North 8.0 mph 8.0 mph 89% 0.00 in 47 W/m2
15:28 52.3 °F 49.2 °F 29.39 in North 7.0 mph 8.0 mph 89% 0.00 in 42 W/m2
15:34 51.7 °F 48.6 °F 29.39 in East 7.0 mph 10.0 mph 89% 0.00 in 26 W/m2
15:40 51.4 °F 48.3 °F 29.40 in NNE 6.0 mph 6.0 mph 89% 0.16 in 11 W/m2
15:46 51.6 °F 48.8 °F 29.41 in North 3.0 mph 6.0 mph 90% 0.56 in 11 W/m2
15:52 51.8 °F 49.0 °F 29.41 in North 1.0 mph 2.0 mph 90% 1.22 in 21 W/m2
15:58 51.8 °F 49.3 °F 29.41 in North 1.0 mph 2.0 mph 91% 0.32 in 40 W/m2
16:04 52.0 °F 49.7 °F 29.40 in ENE 1.0 mph 2.0 mph 92% 0.21 in 83 W/m2
16:10 52.2 °F 49.9 °F 29.40 in NE 2.0 mph 2.0 mph 92% 0.15 in 123 W/m2
16:16 52.4 °F 50.1 °F 29.41 in ENE 3.0 mph 5.0 mph 92% 0.07 in 148 W/m2
16:22 52.7 °F 50.4 °F 29.41 in ENE 3.0 mph 3.0 mph 92% 0.04 in 74 W/m2
16:28 52.9 °F 50.9 °F 29.41 in NE 2.0 mph 3.0 mph 93% 0.00 in 76 W/m2
16:34 53.1 °F 51.1 °F 29.41 in NNW 2.0 mph 3.0 mph 93% 0.00 in 72 W/m2
16:40 53.2 °F 51.2 °F 29.41 in NE 1.0 mph 2.0 mph 93% 0.00 in 46 W/m2
16:46 53.2 °F 51.2 °F 29.42 in NE 1.0 mph 2.0 mph 93% 0.00 in 12 W/m2
16:52 53.0 °F 51.0 °F 29.43 in NNW 1.0 mph 3.0 mph 93% 0.00 in 7 W/m2
16:58 52.7 °F 50.7 °F 29.43 in NNW 2.0 mph 3.0 mph 93% 0.00 in 5 W/m2
17:04 52.5 °F 50.5 °F 29.44 in NNW 1.0 mph 2.0 mph 93% 0.08 in 5 W/m2
17:10 52.4 °F 50.4 °F 29.45 in NNW 1.0 mph 1.0 mph 93% 1.33 in 5 W/m2
17:16 52.4 °F 50.4 °F 29.46 in Calm   2.0 mph 93% 0.22 in 5 W/m2
17:22 52.2 °F 50.2 °F 29.46 in East 2.0 mph 3.0 mph 93% 0.07 in 18 W/m2
17:28 51.8 °F 49.8 °F 29.46 in SE 2.0 mph 3.0 mph 93% 0.04 in 14 W/m2
17:34 51.6 °F 49.6 °F 29.46 in East 2.0 mph 8.0 mph 93% 0.00 in 19 W/m2
17:40 51.4 °F 49.4 °F 29.46 in ESE 3.0 mph 3.0 mph 93% 0.00 in 14 W/m2
17:46 51.2 °F 49.2 °F 29.47 in SSE 3.0 mph 3.0 mph 93% 0.00 in 5 W/m2
17:52 51.0 °F 48.8 °F 29.48 in East 1.0 mph 2.0 mph 92% 0.00 in 0 W/m2
17:58 50.7 °F 48.7 °F 29.49 in SE 1.0 mph 2.0 mph 93% 0.05 in 0 W/m2
18:04 50.2 °F 48.0 °F 29.49 in SSE 1.0 mph 3.0 mph 92% 0.20 in 0 W/m2
18:10 49.8 °F 47.6 °F 29.49 in East 2.0 mph 2.0 mph 92% 0.07 in 5 W/m2
18:16 49.5 °F 47.3 °F 29.50 in ESE 2.0 mph 4.0 mph 92% 0.04 in 5 W/m2
18:22 49.3 °F 47.1 °F 29.51 in East 2.0 mph 4.0 mph 92% 0.00 in 0 W/m2
18:28 49.1 °F 46.9 °F 29.51 in East 2.0 mph 4.0 mph 92% 0.00 in 7 W/m2
18:34 49.0 °F 46.8 °F 29.51 in ESE 1.0 mph 3.0 mph 92% 0.00 in 5 W/m2
18:40 48.9 °F 46.7 °F 29.52 in ESE 1.0 mph 1.0 mph 92% 0.00 in 0 W/m2
18:46 48.9 °F 46.7 °F 29.52 in East 1.0 mph 3.0 mph 92% 0.00 in 0 W/m2
18:52 48.8 °F 46.9 °F 29.53 in ENE 1.0 mph 2.0 mph 93% 0.00 in 5 W/m2
18:58 48.7 °F 46.8 °F 29.54 in Calm   2.0 mph 93% 0.00 in 0 W/m2
19:04 48.7 °F 46.8 °F 29.54 in Calm   3.0 mph 93% 0.00 in 0 W/m2
19:10 48.7 °F 46.8 °F 29.55 in Calm     93% 0.00 in 0 W/m2
19:16 48.7 °F 46.8 °F 29.55 in East 1.0 mph 3.0 mph 93% 0.00 in 5 W/m2
19:22 48.8 °F 46.9 °F 29.55 in East 1.0 mph 2.0 mph 93% 0.00 in 7 W/m2
19:28 49.3 °F 47.4 °F 29.55 in West 2.0 mph 9.0 mph 93% 0.00 in 7 W/m2
19:34 49.7 °F 47.5 °F 29.55 in WSW 2.0 mph 2.0 mph 92% 0.00 in 0 W/m2
19:40 50.4 °F 47.3 °F 29.55 in WNW 2.0 mph 3.0 mph 89% 0.00 in 0 W/m2
19:46 51.1 °F 46.7 °F 29.55 in West 2.0 mph 6.0 mph 85% 0.00 in 0 W/m2
19:52 52.0 °F 46.7 °F 29.55 in West 3.0 mph 8.0 mph 82% 0.00 in 0 W/m2
19:58 52.4 °F 45.7 °F 29.55 in West 4.0 mph 8.0 mph 78% 0.00 in 0 W/m2
20:04 52.4 °F 45.7 °F 29.56 in WSW 3.0 mph 4.0 mph 78% 0.00 in 0 W/m2
20:10 52.3 °F 45.6 °F 29.56 in SW 2.0 mph 3.0 mph 78% 0.00 in 0 W/m2
20:16 52.5 °F 45.5 °F 29.56 in WSW 3.0 mph 4.0 mph 77% 0.00 in 0 W/m2
20:22 52.6 °F 45.2 °F 29.57 in SSW 3.0 mph 7.0 mph 76% 0.00 in 0 W/m2
20:28 52.8 °F 45.1 °F 29.57 in SSW 4.0 mph 7.0 mph 75% 0.00 in 0 W/m2
20:34 52.9 °F 44.8 °F 29.57 in West 5.0 mph 7.0 mph 74% 0.00 in 0 W/m2
20:40 52.8 °F 44.7 °F 29.57 in SW 4.0 mph 7.0 mph 74% 0.00 in 0 W/m2
20:46 52.9 °F 44.5 °F 29.58 in SSW 5.0 mph 10.0 mph 73% 0.00 in 0 W/m2
20:52 53.0 °F 44.2 °F 29.58 in SSW 6.0 mph 7.0 mph 72% 0.00 in 0 W/m2
20:58 52.9 °F 44.1 °F 29.59 in SW 5.0 mph 7.0 mph 72% 0.00 in 0 W/m2
21:04 52.9 °F 44.1 °F 29.59 in West 5.0 mph 12.0 mph 72% 0.00 in 0 W/m2
21:10 52.9 °F 43.7 °F 29.59 in West 6.0 mph 6.0 mph 71% 0.00 in 0 W/m2
21:16 52.8 °F 44.0 °F 29.60 in WNW 4.0 mph 7.0 mph 72% 0.00 in 0 W/m2
21:22 52.8 °F 43.7 °F 29.60 in West 4.0 mph 4.0 mph 71% 0.00 in 0 W/m2
21:28 52.6 °F 43.5 °F 29.60 in West 4.0 mph 8.0 mph 71% 0.00 in 0 W/m2
21:34 52.4 °F 43.6 °F 29.60 in SW 2.0 mph 4.0 mph 72% 0.00 in 0 W/m2
21:40 52.4 °F 43.6 °F 29.60 in West 2.0 mph 2.0 mph 72% 0.00 in 0 W/m2
21:46 52.2 °F 43.4 °F 29.60 in WSW 3.0 mph 4.0 mph 72% 0.00 in 0 W/m2
21:52 52.2 °F 43.4 °F 29.60 in WSW 2.0 mph 2.0 mph 72% 0.00 in 0 W/m2
21:58 52.0 °F 43.3 °F 29.61 in West 2.0 mph 5.0 mph 72% 0.00 in 0 W/m2
22:04 51.9 °F 43.2 °F 29.61 in WNW 3.0 mph 6.0 mph 72% 0.00 in 0 W/m2
22:10 51.8 °F 42.3 °F 29.61 in WNW 5.0 mph 9.0 mph 70% 0.00 in 0 W/m2
22:16 51.7 °F 42.2 °F 29.62 in West 6.0 mph 10.0 mph 70% 0.00 in 0 W/m2
22:22 51.5 °F 42.0 °F 29.62 in West 6.0 mph 7.0 mph 70% 0.00 in 0 W/m2
22:28 51.2 °F 42.1 °F 29.62 in WNW 5.0 mph 7.0 mph 71% 0.00 in 0 W/m2
22:34 51.2 °F 42.1 °F 29.62 in West 5.0 mph 5.0 mph 71% 0.00 in 0 W/m2
22:40 51.0 °F 41.9 °F 29.62 in SW 4.0 mph 4.0 mph 71% 0.00 in 0 W/m2
22:46 50.9 °F 41.8 °F 29.62 in WSW 5.0 mph 6.0 mph 71% 0.00 in 0 W/m2
22:52 50.8 °F 41.7 °F 29.62 in West 6.0 mph 6.0 mph 71% 0.00 in 0 W/m2
22:58 50.7 °F 41.6 °F 29.63 in SW 6.0 mph 6.0 mph 71% 0.00 in 0 W/m2
23:06 50.4 °F 41.7 °F 29.63 in WSW 4.0 mph 6.0 mph 72% 0.00 in 0 W/m2
23:12 50.3 °F 41.6 °F 29.63 in WSW 5.0 mph 8.0 mph 72% 0.00 in 0 W/m2
23:18 50.1 °F 41.4 °F 29.64 in SSW 4.0 mph 12.0 mph 72% 0.00 in 0 W/m2
23:24 49.8 °F 41.1 °F 29.64 in WSW 6.0 mph 8.0 mph 72% 0.00 in 0 W/m2
23:30 49.3 °F 41.0 °F 29.64 in NW 5.0 mph 8.0 mph 73% 0.00 in 0 W/m2
23:36 49.1 °F 40.8 °F 29.65 in WSW 5.0 mph 8.0 mph 73% 0.00 in 0 W/m2
23:42 49.0 °F 40.7 °F 29.65 in West 4.0 mph 5.0 mph 73% 0.00 in 0 W/m2
23:48 48.8 °F 40.5 °F 29.65 in WNW 3.0 mph 7.0 mph 73% 0.00 in 0 W/m2
23:54 48.7 °F 40.8 °F 29.65 in West 3.0 mph 3.0 mph 74% 0.00 in 0 W/m2
Country Meadow, Clay, NY, USA
Compliments of Weather Underground - 2 mb